Time;durP1;ratioP1;P1;durP2;ratioP2;P2;SDS_P1;SDS_P2;PMS_P1;PMS_P2;Temp;Humidity;BMP_temperature;BMP_pressure;BME280_temperature;BME280_humidity;BME280_pressure;Samples;Min_cycle;Max_cycle;Signal;HPM_P1;HPM_P2
2023/09/28 00:00:45;;;;;;;4.70;3.40;;;18.70;99.90;;;;;;5045133;28;20211;-59
2023/09/28 00:03:14;;;;;;;4.77;3.90;;;18.70;99.90;;;;;;5033126;28;20606;-59
2023/09/28 00:05:41;;;;;;;5.17;3.70;;;18.70;99.90;;;;;;5040822;28;20220;-59
2023/09/28 00:08:11;;;;;;;6.07;3.60;;;18.70;99.90;;;;;;5044081;28;20237;-59
2023/09/28 00:10:38;;;;;;;9.37;4.10;;;18.80;99.90;;;;;;5032194;28;20232;-59
2023/09/28 00:13:06;;;;;;;5.67;4.03;;;18.70;99.90;;;;;;5044064;28;20617;-59
2023/09/28 00:15:34;;;;;;;7.90;4.00;;;18.70;99.90;;;;;;5041815;28;20245;-59
2023/09/28 00:18:03;;;;;;;4.13;3.73;;;18.70;99.90;;;;;;5043283;28;20271;-59
2023/09/28 00:20:31;;;;;;;4.27;3.87;;;18.60;99.90;;;;;;5033687;28;20284;-59
2023/09/28 00:22:59;;;;;;;5.17;3.90;;;18.60;99.90;;;;;;5045139;28;20219;-59
2023/09/28 00:25:29;;;;;;;4.53;4.10;;;18.60;99.90;;;;;;5046046;28;20231;-59
2023/09/28 00:27:57;;;;;;;4.20;3.73;;;18.60;99.90;;;;;;5062921;28;20266;-59
2023/09/28 00:30:26;;;;;;;5.83;3.93;;;18.60;99.90;;;;;;5061940;28;20224;-59
2023/09/28 00:32:55;;;;;;;4.43;4.03;;;18.50;99.90;;;;;;5055361;28;20285;-59
2023/09/28 00:35:25;;;;;;;6.13;4.30;;;18.50;99.90;;;;;;5052432;28;20293;-59
2023/09/28 00:37:53;;;;;;;4.50;4.10;;;18.50;99.90;;;;;;5055744;28;20320;-59
2023/09/28 00:40:27;;;;;;;4.60;4.13;;;18.40;99.90;;;;;;5034948;28;20284;-59
2023/09/28 00:42:57;;;;;;;4.53;4.13;;;18.40;99.90;;;;;;5066836;28;20188;-59
2023/09/28 00:45:27;;;;;;;5.93;3.67;;;18.30;99.90;;;;;;5064911;28;20217;-59
2023/09/28 00:47:56;;;;;;;8.80;4.10;;;18.30;99.90;;;;;;5067343;28;20248;-59
2023/09/28 00:50:26;;;;;;;4.60;3.70;;;18.20;99.90;;;;;;5068842;28;20255;-59
2023/09/28 00:52:57;;;;;;;6.90;4.50;;;18.20;99.90;;;;;;5069153;28;20212;-59
2023/09/28 00:55:27;;;;;;;5.10;4.60;;;18.20;99.90;;;;;;5067810;28;20203;-59
2023/09/28 00:58:00;;;;;;;4.73;4.33;;;18.10;99.90;;;;;;5067955;28;20259;-59
2023/09/28 01:00:29;;;;;;;6.00;4.27;;;18.10;99.90;;;;;;5069151;28;20236;-59
2023/09/28 01:03:00;;;;;;;4.70;4.20;;;18.10;99.90;;;;;;5068085;28;20220;-59
2023/09/28 01:05:33;;;;;;;5.90;4.30;;;18.00;99.90;;;;;;5049379;28;20216;-59
2023/09/28 01:08:12;;;;;;;4.87;4.10;;;18.00;99.90;;;;;;5059947;28;20289;-59
2023/09/28 01:10:41;;;;;;;5.00;4.47;;;18.00;99.90;;;;;;5063557;28;20231;-59
2023/09/28 01:13:12;;;;;;;6.17;4.37;;;17.90;99.90;;;;;;5065100;28;20604;-59
2023/09/28 01:15:41;;;;;;;5.27;4.27;;;17.80;99.90;;;;;;5066397;28;20204;-59
2023/09/28 01:18:09;;;;;;;7.23;4.97;;;17.80;99.90;;;;;;5065999;28;20326;-59
2023/09/28 01:20:39;;;;;;;4.87;4.47;;;17.80;99.90;;;;;;5065075;28;20225;-59
2023/09/28 01:23:08;;;;;;;5.37;4.97;;;17.80;99.90;;;;;;5066978;28;20288;-59
2023/09/28 01:25:39;;;;;;;6.30;4.57;;;17.80;99.90;;;;;;5067051;28;20232;-59
2023/09/28 01:28:07;;;;;;;5.03;4.53;;;17.70;99.90;;;;;;5067106;28;20212;-59
2023/09/28 01:30:35;;;;;;;6.00;4.77;;;17.80;99.90;;;;;;5068493;28;20220;-59
2023/09/28 01:33:04;;;;;;;8.70;4.50;;;17.70;99.90;;;;;;5068951;28;20720;-59
2023/09/28 01:35:32;;;;;;;5.17;4.40;;;17.70;99.90;;;;;;5066060;28;20216;-59
2023/09/28 01:38:09;;;;;;;11.33;4.47;;;17.70;99.90;;;;;;5069330;28;20212;-59
2023/09/28 01:40:38;;;;;;;5.17;4.50;;;17.70;99.90;;;;;;5067298;28;20262;-59
2023/09/28 01:43:07;;;;;;;5.00;4.50;;;17.70;99.90;;;;;;5065767;28;20525;-59
2023/09/28 01:45:35;;;;;;;5.30;4.83;;;17.70;99.90;;;;;;5045393;28;20217;-59
2023/09/28 01:48:03;;;;;;;8.03;5.00;;;17.70;99.90;;;;;;5049329;28;20217;-59
2023/09/28 01:50:32;;;;;;;6.03;4.77;;;17.70;99.90;;;;;;5048851;28;20220;-60
2023/09/28 01:53:00;;;;;;;6.57;4.37;;;17.70;99.90;;;;;;5048866;28;20313;-59
2023/09/28 01:55:30;;;;;;;11.47;5.07;;;17.70;99.90;;;;;;5050005;28;20568;-59
2023/09/28 01:57:59;;;;;;;8.13;4.80;;;17.80;99.90;;;;;;5044176;28;20185;-59
2023/09/28 02:00:27;;;;;;;4.90;4.50;;;17.80;99.90;;;;;;5048373;28;20633;-58
2023/09/28 02:02:56;;;;;;;6.83;4.77;;;17.90;99.90;;;;;;5043783;28;20219;-58
2023/09/28 02:05:32;;;;;;;5.07;4.53;;;17.90;99.90;;;;;;5043947;28;20260;-59
2023/09/28 02:08:02;;;;;;;5.30;3.93;;;18.00;99.90;;;;;;5045340;28;20267;-59
2023/09/28 02:10:32;;;;;;;5.43;4.57;;;18.00;99.90;;;;;;5041070;28;20194;-59
2023/09/28 02:13:00;;;;;;;6.77;4.47;;;18.10;99.90;;;;;;5048110;28;20638;-58
2023/09/28 02:15:30;;;;;;;7.30;4.73;;;18.20;99.90;;;;;;5046097;28;20263;-58
2023/09/28 02:17:57;;;;;;;5.83;4.50;;;18.30;99.90;;;;;;5041975;28;20700;-59
2023/09/28 02:20:26;;;;;;;5.17;4.67;;;18.30;99.90;;;;;;5043880;28;20634;-59
2023/09/28 02:22:53;;;;;;;5.77;4.37;;;18.30;99.90;;;;;;5044464;28;20867;-58
2023/09/28 02:25:23;;;;;;;10.50;4.60;;;18.30;99.90;;;;;;5047058;28;20295;-58
2023/09/28 02:27:53;;;;;;;6.77;4.73;;;18.40;99.90;;;;;;5043849;28;20248;-59
2023/09/28 02:30:23;;;;;;;6.40;4.53;;;18.40;99.90;;;;;;5043828;28;20228;-59
2023/09/28 02:32:52;;;;;;;8.43;4.60;;;18.40;99.90;;;;;;5049282;28;20266;-59
2023/09/28 02:35:21;;;;;;;9.30;4.50;;;18.50;99.90;;;;;;5046242;28;20229;-59
2023/09/28 02:37:51;;;;;;;8.47;4.20;;;18.50;99.90;;;;;;5043032;28;20216;-58
2023/09/28 02:40:20;;;;;;;5.77;4.03;;;18.50;99.90;;;;;;5050220;28;20186;-58
2023/09/28 02:42:49;;;;;;;7.73;3.60;;;18.50;99.90;;;;;;5067607;28;20196;-59
2023/09/28 02:45:18;;;;;;;9.40;4.50;;;18.50;99.90;;;;;;5061299;28;20223;-58
2023/09/28 02:47:48;;;;;;;6.07;4.17;;;18.40;99.90;;;;;;5066074;28;20221;-59
2023/09/28 02:50:16;;;;;;;7.57;4.47;;;18.40;99.90;;;;;;5066906;28;20229;-59
2023/09/28 02:52:47;;;;;;;7.40;4.33;;;18.30;99.90;;;;;;5070161;28;20285;-58
2023/09/28 02:55:17;;;;;;;6.40;4.33;;;18.30;99.90;;;;;;5062702;28;20199;-59
2023/09/28 02:57:48;;;;;;;7.17;4.10;;;18.20;99.90;;;;;;5060767;28;20188;-58
2023/09/28 03:00:19;;;;;;;8.13;4.80;;;18.10;99.90;;;;;;5067051;28;20270;-58
2023/09/28 03:02:49;;;;;;;9.03;4.20;;;18.10;99.90;;;;;;5066554;28;20618;-59
2023/09/28 03:05:17;;;;;;;5.80;4.07;;;18.00;99.90;;;;;;5068032;28;20215;-58
2023/09/28 03:07:46;;;;;;;7.13;4.20;;;17.90;99.90;;;;;;5063840;28;20235;-59
2023/09/28 03:10:14;;;;;;;7.90;4.10;;;17.80;99.90;;;;;;5066618;28;20196;-59
2023/09/28 03:12:44;;;;;;;7.63;4.20;;;17.70;99.90;;;;;;5059825;28;20203;-59
2023/09/28 03:15:13;;;;;;;11.93;4.40;;;17.60;99.90;;;;;;5063676;28;20224;-58
2023/09/28 03:17:41;;;;;;;10.73;4.40;;;17.60;99.90;;;;;;5066225;28;20238;-58
2023/09/28 03:20:14;;;;;;;10.50;4.13;;;17.50;99.90;;;;;;5065661;28;20220;-58
2023/09/28 03:22:43;;;;;;;9.60;3.67;;;17.50;99.90;;;;;;5068311;28;20231;-58
2023/09/28 03:25:16;;;;;;;12.10;4.10;;;17.50;99.90;;;;;;5073717;28;20213;-57
2023/09/28 03:27:45;;;;;;;11.67;3.97;;;17.40;99.90;;;;;;5068439;28;20224;-59
2023/09/28 03:30:15;;;;;;;18.13;4.13;;;17.30;99.90;;;;;;5063432;28;20227;-59
2023/09/28 03:32:43;;;;;;;14.23;3.80;;;17.30;99.90;;;;;;5070454;28;20224;-59
2023/09/28 03:35:14;;;;;;;13.40;4.37;;;17.30;99.90;;;;;;5068267;28;20234;-59
2023/09/28 03:37:42;;;;;;;15.37;3.70;;;17.20;99.90;;;;;;5064458;28;20255;-59
2023/09/28 03:40:14;;;;;;;15.27;3.47;;;17.20;99.90;;;;;;5069438;28;20210;-59
2023/09/28 03:42:44;;;;;;;14.93;3.50;;;17.20;99.90;;;;;;5063348;28;20271;-59
2023/09/28 03:45:14;;;;;;;20.53;4.43;;;17.20;99.90;;;;;;5064062;28;20255;-59
2023/09/28 03:47:44;;;;;;;14.33;3.47;;;17.20;99.90;;;;;;5062570;28;20265;-59
2023/09/28 03:50:14;;;;;;;10.07;3.30;;;17.10;99.90;;;;;;5069685;28;20220;-59
2023/09/28 03:52:43;;;;;;;13.37;3.07;;;17.10;99.90;;;;;;5064690;28;20803;-59
2023/09/28 03:55:15;;;;;;;19.63;3.73;;;17.10;99.90;;;;;;5068112;28;20245;-58
2023/09/28 03:57:44;;;;;;;17.23;3.43;;;17.10;99.90;;;;;;5066362;28;20279;-59
2023/09/28 04:00:14;;;;;;;14.30;3.10;;;17.00;99.90;;;;;;5067350;28;20677;-59
2023/09/28 04:02:44;;;;;;;15.17;3.47;;;16.90;99.90;;;;;;5062686;28;20612;-59
2023/09/28 04:05:18;;;;;;;16.17;3.33;;;16.90;99.90;;;;;;5065246;28;20224;-59
2023/09/28 04:07:47;;;;;;;17.50;4.20;;;16.80;99.90;;;;;;5068243;28;20262;-59
2023/09/28 04:10:15;;;;;;;17.97;4.27;;;16.80;99.90;;;;;;5064037;28;20203;-59
2023/09/28 04:12:45;;;;;;;13.93;3.37;;;16.80;99.90;;;;;;5077950;28;20208;-59
2023/09/28 04:15:13;;;;;;;15.07;3.47;;;16.70;99.90;;;;;;5069169;28;20224;-59
2023/09/28 04:17:42;;;;;;;12.47;3.10;;;16.70;99.90;;;;;;5065776;28;20230;-59
2023/09/28 04:20:13;;;;;;;20.50;3.63;;;16.60;99.90;;;;;;5061513;28;20213;-59
2023/09/28 04:22:43;;;;;;;13.70;3.23;;;16.40;99.90;;;;;;5066835;28;20614;-59
2023/09/28 04:25:11;;;;;;;15.53;3.40;;;16.30;99.90;;;;;;5070282;28;20193;-54
2023/09/28 04:27:42;;;;;;;12.87;3.47;;;16.20;99.90;;;;;;5063155;28;20552;-59
2023/09/28 04:30:12;;;;;;;16.37;3.60;;;16.20;99.90;;;;;;5066114;28;20224;-59
2023/09/28 04:32:40;;;;;;;14.93;3.17;;;16.10;99.90;;;;;;5068606;28;20695;-59
2023/09/28 04:35:10;;;;;;;15.00;3.33;;;16.00;99.90;;;;;;5070820;28;20220;-59
2023/09/28 04:37:44;;;;;;;26.13;4.07;;;16.00;99.90;;;;;;5067806;28;20222;-59
2023/09/28 04:40:13;;;;;;;21.13;3.57;;;15.90;99.90;;;;;;5064386;28;20709;-59
2023/09/28 04:42:41;;;;;;;19.00;3.63;;;15.80;99.90;;;;;;5069634;28;20204;-59
2023/09/28 04:45:11;;;;;;;16.43;3.23;;;15.80;99.90;;;;;;5076982;28;20226;-59
2023/09/28 04:47:42;;;;;;;19.53;3.87;;;15.80;99.90;;;;;;5066530;28;20231;-59
2023/09/28 04:50:11;;;;;;;16.43;3.77;;;15.70;99.90;;;;;;5067931;28;20295;-59
2023/09/28 04:52:43;;;;;;;18.20;3.60;;;15.60;99.90;;;;;;5068674;28;20273;-58
2023/09/28 04:55:16;;;;;;;17.33;3.63;;;15.60;99.90;;;;;;5067805;28;20207;-57
2023/09/28 04:57:45;;;;;;;18.53;3.80;;;15.50;99.90;;;;;;5069122;28;20268;-58
2023/09/28 05:00:16;;;;;;;11.47;3.63;;;15.40;99.90;;;;;;5068929;28;20218;-58
2023/09/28 05:02:47;;;;;;;18.17;3.73;;;15.40;99.90;;;;;;5052739;28;20645;-58
2023/09/28 05:05:16;;;;;;;12.50;3.60;;;15.30;99.90;;;;;;5056158;28;20264;-58
2023/09/28 05:07:45;;;;;;;18.77;3.20;;;15.20;99.90;;;;;;5060374;28;20305;-59
2023/09/28 05:10:16;;;;;;;13.20;3.17;;;15.20;99.90;;;;;;5066840;28;20314;-58
2023/09/28 05:12:44;;;;;;;12.97;3.07;;;15.20;99.90;;;;;;5066296;28;20689;-58
2023/09/28 05:15:13;;;;;;;17.77;4.20;;;15.10;99.90;;;;;;5065323;28;20257;-58
2023/09/28 05:17:42;;;;;;;18.13;4.50;;;15.00;99.90;;;;;;5064848;28;20241;-58
2023/09/28 05:20:11;;;;;;;15.87;3.93;;;15.00;99.90;;;;;;5066768;28;20628;-58
2023/09/28 05:22:40;;;;;;;14.03;3.63;;;14.90;99.90;;;;;;5066131;28;20282;-58
2023/09/28 05:25:09;;;;;;;17.60;3.73;;;15.00;99.90;;;;;;5070639;28;20185;-58
2023/09/28 05:27:39;;;;;;;19.00;3.70;;;14.90;99.90;;;;;;5067565;28;20280;-58
2023/09/28 05:30:10;;;;;;;21.30;4.10;;;14.80;99.90;;;;;;5064544;28;20555;-60
2023/09/28 05:32:38;;;;;;;19.87;3.37;;;14.80;99.90;;;;;;5047049;28;20691;-58
2023/09/28 05:35:07;;;;;;;17.70;3.63;;;14.80;99.90;;;;;;5072512;28;20650;-58
2023/09/28 05:37:36;;;;;;;11.83;3.53;;;14.80;99.90;;;;;;5066895;28;20228;-58
2023/09/28 05:40:05;;;;;;;19.57;4.20;;;14.70;99.90;;;;;;5065457;28;20195;-59
2023/09/28 05:42:34;;;;;;;15.77;4.30;;;14.70;99.90;;;;;;5066024;28;20218;-59
2023/09/28 05:45:04;;;;;;;19.93;3.60;;;14.70;99.90;;;;;;5068343;28;20760;-58
2023/09/28 05:47:34;;;;;;;15.77;3.40;;;14.70;99.90;;;;;;5066162;28;20686;-58
2023/09/28 05:50:04;;;;;;;17.13;3.80;;;14.60;99.90;;;;;;5070991;28;20222;-58
2023/09/28 05:52:33;;;;;;;17.47;3.80;;;14.50;99.90;;;;;;5069050;28;20221;-59
2023/09/28 05:55:01;;;;;;;16.33;3.30;;;14.60;99.90;;;;;;5069352;28;20273;-59
2023/09/28 05:57:29;;;;;;;15.90;3.87;;;14.60;99.90;;;;;;5063452;28;20237;-59
2023/09/28 05:59:58;;;;;;;24.20;4.00;;;14.70;99.90;;;;;;5064437;28;20229;-59
2023/09/28 06:02:27;;;;;;;19.23;3.83;;;14.60;99.90;;;;;;5066204;28;20215;-59
2023/09/28 06:04:56;;;;;;;14.43;3.80;;;14.60;99.90;;;;;;5063571;28;20965;-59
2023/09/28 06:07:24;;;;;;;21.03;3.73;;;14.60;99.90;;;;;;5063810;28;20182;-59
2023/09/28 06:09:53;;;;;;;24.10;3.40;;;14.70;99.90;;;;;;5066076;28;20688;-59
2023/09/28 06:12:21;;;;;;;15.03;3.47;;;14.70;99.90;;;;;;5066049;28;20320;-59
2023/09/28 06:14:50;;;;;;;24.23;3.50;;;14.70;99.90;;;;;;5065267;28;20222;-59
2023/09/28 06:17:21;;;;;;;19.37;4.10;;;14.70;99.90;;;;;;5062526;28;20224;-60
2023/09/28 06:19:51;;;;;;;20.03;3.60;;;14.60;99.90;;;;;;5062556;28;20229;-58
2023/09/28 06:22:25;;;;;;;21.40;3.73;;;14.70;99.90;;;;;;5059259;28;20541;-59
2023/09/28 06:24:54;;;;;;;15.07;3.43;;;14.70;99.90;;;;;;5066557;28;20204;-58
2023/09/28 06:27:25;;;;;;;13.67;3.13;;;14.70;99.90;;;;;;5064831;28;20230;-58
2023/09/28 06:29:53;;;;;;;22.03;4.47;;;14.80;99.90;;;;;;5065041;28;20222;-58
2023/09/28 06:32:23;;;;;;;16.70;4.10;;;14.90;99.90;;;;;;5062591;28;20317;-59
2023/09/28 06:34:53;;;;;;;21.50;3.83;;;15.00;99.90;;;;;;5066612;28;20308;-58
2023/09/28 06:37:21;;;;;;;17.40;3.50;;;15.00;99.90;;;;;;5059314;28;20285;-58
2023/09/28 06:39:50;;;;;;;21.13;4.20;;;15.10;99.90;;;;;;5066231;28;20463;-58
2023/09/28 06:42:18;;;;;;;18.60;4.03;;;15.10;99.90;;;;;;5065625;28;20226;-58
2023/09/28 06:44:49;;;;;;;28.13;4.20;;;15.20;99.90;;;;;;5063303;28;20243;-58
2023/09/28 06:47:18;;;;;;;21.73;3.50;;;15.30;99.90;;;;;;5064508;28;20225;-59
2023/09/28 06:49:46;;;;;;;24.57;4.37;;;15.40;99.90;;;;;;5062103;28;20247;-58
2023/09/28 06:52:15;;;;;;;33.80;5.50;;;15.60;99.90;;;;;;5060947;28;20549;-57
2023/09/28 06:54:44;;;;;;;24.17;4.10;;;15.60;99.90;;;;;;5058350;28;20193;-58
2023/09/28 06:57:12;;;;;;;19.97;3.60;;;15.70;99.90;;;;;;5061521;28;20229;-59
2023/09/28 06:59:43;;;;;;;19.07;4.40;;;15.80;99.90;;;;;;5064453;28;20229;-58
2023/09/28 07:02:12;;;;;;;26.90;4.20;;;15.90;99.90;;;;;;5061565;28;20238;-58
2023/09/28 07:04:40;;;;;;;21.73;3.73;;;16.10;99.90;;;;;;5063236;28;20690;-59
2023/09/28 07:07:10;;;;;;;21.70;4.30;;;16.40;99.90;;;;;;5064221;28;20191;-59
2023/09/28 07:09:40;;;;;;;23.67;4.10;;;16.60;99.90;;;;;;5064976;28;20219;-58
2023/09/28 07:12:23;;;;;;;18.97;3.70;;;16.70;99.90;;;;;;5059874;28;20301;-58
2023/09/28 07:14:52;;;;;;;26.23;4.23;;;16.80;99.90;;;;;;5066219;28;20226;-58
2023/09/28 07:17:20;;;;;;;19.10;4.37;;;16.90;99.90;;;;;;5062072;28;20704;-58
2023/09/28 07:19:49;;;;;;;19.80;4.00;;;17.00;99.90;;;;;;5061870;28;20609;-58
2023/09/28 07:22:20;;;;;;;18.53;4.33;;;17.10;99.90;;;;;;5064600;28;20216;-57
2023/09/28 07:24:51;;;;;;;19.47;3.83;;;17.10;99.90;;;;;;5067028;28;20654;-58
2023/09/28 07:27:19;;;;;;;24.87;4.70;;;17.00;99.90;;;;;;5061405;28;20257;-58
2023/09/28 07:29:48;;;;;;;23.97;3.93;;;17.10;99.90;;;;;;5066784;28;20218;-58
2023/09/28 07:32:17;;;;;;;23.07;4.30;;;17.20;99.90;;;;;;5065445;28;20231;-58
2023/09/28 07:34:45;;;;;;;25.87;4.20;;;17.20;99.90;;;;;;5066767;28;20229;-59
2023/09/28 07:37:14;;;;;;;25.60;4.30;;;17.40;99.90;;;;;;5067282;28;20219;-58
2023/09/28 07:39:45;;;;;;;22.87;4.13;;;17.50;99.90;;;;;;5067163;28;20193;-58
2023/09/28 07:42:15;;;;;;;18.40;3.73;;;17.60;99.90;;;;;;5065387;28;20226;-59
2023/09/28 07:44:44;;;;;;;21.90;3.63;;;17.60;99.90;;;;;;5066254;28;20674;-58
2023/09/28 07:47:13;;;;;;;26.90;4.20;;;17.70;99.90;;;;;;5061489;28;20221;-59
2023/09/28 07:49:42;;;;;;;22.43;3.97;;;17.90;99.90;;;;;;5061714;28;20227;-59
2023/09/28 07:52:10;;;;;;;17.80;3.83;;;17.90;99.90;;;;;;5059546;28;20196;-59
2023/09/28 07:54:39;;;;;;;19.60;3.73;;;18.00;99.90;;;;;;5066523;28;20227;-59
2023/09/28 07:57:08;;;;;;;20.30;4.63;;;18.20;99.90;;;;;;5058299;28;20230;-59
2023/09/28 07:59:37;;;;;;;24.93;4.23;;;18.30;99.90;;;;;;5062252;28;20693;-59
2023/09/28 08:02:09;;;;;;;17.77;4.50;;;18.40;99.90;;;;;;5062027;28;20231;-59
2023/09/28 08:04:38;;;;;;;18.30;3.70;;;18.50;99.90;;;;;;5062309;28;20239;-59
2023/09/28 08:07:07;;;;;;;20.30;3.90;;;18.40;99.90;;;;;;5060777;28;20193;-59
2023/09/28 08:09:37;;;;;;;20.60;3.90;;;18.40;99.90;;;;;;5062812;28;20220;-59
2023/09/28 08:12:06;;;;;;;17.33;3.43;;;18.50;99.90;;;;;;5060661;28;20208;-59
2023/09/28 08:14:38;;;;;;;17.60;4.03;;;18.60;99.90;;;;;;5056942;28;20236;-59
2023/09/28 08:17:09;;;;;;;22.13;3.77;;;18.90;99.90;;;;;;5061982;28;20232;-59
2023/09/28 08:19:38;;;;;;;28.57;4.00;;;19.00;99.90;;;;;;5058950;28;20232;-59
2023/09/28 08:22:06;;;;;;;24.13;4.03;;;19.20;99.90;;;;;;5042172;28;20208;-60
2023/09/28 08:24:35;;;;;;;21.60;3.70;;;19.30;99.90;;;;;;5066054;28;20230;-60
2023/09/28 08:27:04;;;;;;;20.77;4.10;;;19.20;99.90;;;;;;5056995;28;20232;-59
2023/09/28 08:29:34;;;;;;;19.57;3.77;;;19.30;99.90;;;;;;5063064;28;20303;-58
2023/09/28 08:32:05;;;;;;;23.40;4.00;;;19.40;99.90;;;;;;5062465;28;20238;-60
2023/09/28 08:34:34;;;;;;;18.80;3.57;;;19.50;99.90;;;;;;5062186;28;20793;-59
2023/09/28 08:37:07;;;;;;;15.37;3.50;;;19.60;99.90;;;;;;5062074;28;20192;-59
2023/09/28 08:39:37;;;;;;;17.30;3.73;;;19.60;99.90;;;;;;5061130;28;20266;-59
2023/09/28 08:42:11;;;;;;;27.40;4.67;;;19.60;99.90;;;;;;5043622;28;20224;-58
2023/09/28 08:44:42;;;;;;;24.80;4.00;;;19.60;99.90;;;;;;5039965;28;20223;-59
2023/09/28 08:47:17;;;;;;;20.80;3.97;;;19.60;99.90;;;;;;5041992;28;20304;-59
2023/09/28 08:49:49;;;;;;;20.97;3.37;;;19.40;99.90;;;;;;5040725;28;20567;-58
2023/09/28 08:52:19;;;;;;;20.87;3.43;;;19.40;99.90;;;;;;5040715;28;20236;-58
2023/09/28 08:54:48;;;;;;;20.70;4.13;;;19.30;99.90;;;;;;5059279;28;20219;-58
2023/09/28 08:57:17;;;;;;;22.23;3.80;;;19.40;99.90;;;;;;5044817;28;20216;-59
2023/09/28 08:59:46;;;;;;;16.20;3.37;;;19.50;99.90;;;;;;5052425;28;20233;-59
2023/09/28 09:02:17;;;;;;;16.50;3.40;;;19.40;99.90;;;;;;5055618;28;20224;-59
2023/09/28 09:04:45;;;;;;;23.00;3.83;;;19.50;99.90;;;;;;5064627;28;20714;-59
2023/09/28 09:07:15;;;;;;;15.73;3.53;;;19.40;99.90;;;;;;5059558;28;20185;-59
2023/09/28 09:09:45;;;;;;;16.60;3.57;;;19.40;99.90;;;;;;5062498;28;20199;-59
2023/09/28 09:12:15;;;;;;;21.10;4.50;;;19.40;99.90;;;;;;5064161;28;20864;-59
2023/09/28 09:14:43;;;;;;;17.60;3.60;;;19.40;99.90;;;;;;5061472;28;20213;-59
2023/09/28 09:17:11;;;;;;;24.93;4.13;;;19.40;99.90;;;;;;5063224;28;20300;-59
2023/09/28 09:19:43;;;;;;;16.57;3.60;;;19.40;99.90;;;;;;5062778;28;20231;-59
2023/09/28 09:22:26;;;;;;;14.53;2.80;;;19.40;99.90;;;;;;5061640;28;20219;-59
2023/09/28 09:24:55;;;;;;;14.90;2.90;;;19.50;99.90;;;;;;5068085;28;20220;-58
2023/09/28 09:27:28;;;;;;;17.97;3.20;;;19.60;99.90;;;;;;5062313;28;20220;-59
2023/09/28 09:30:04;;;;;;;14.17;2.60;;;19.60;99.90;;;;;;5063523;28;20229;-58
2023/09/28 09:32:32;;;;;;;13.00;2.93;;;19.70;99.90;;;;;;5063358;28;20224;-59
2023/09/28 09:35:04;;;;;;;8.43;2.63;;;19.70;99.90;;;;;;5064592;28;20754;-59
2023/09/28 09:37:35;;;;;;;9.97;3.07;;;19.70;99.90;;;;;;5062221;28;20227;-59
2023/09/28 09:40:11;;;;;;;18.33;3.50;;;19.80;99.90;;;;;;5067353;28;20188;-58
2023/09/28 09:42:41;;;;;;;13.00;3.00;;;19.90;99.90;;;;;;5063774;28;20212;-59
2023/09/28 09:45:12;;;;;;;10.80;3.03;;;20.00;99.90;;;;;;5065898;28;20241;-59
2023/09/28 09:47:47;;;;;;;15.27;3.50;;;19.90;99.90;;;;;;5065415;28;20224;-59
2023/09/28 09:50:18;;;;;;;11.83;3.07;;;19.80;99.90;;;;;;5064612;28;20227;-59
2023/09/28 09:52:47;;;;;;;14.17;3.10;;;19.70;99.90;;;;;;5066123;28;20219;-59
2023/09/28 09:55:16;;;;;;;16.77;3.27;;;19.80;99.90;;;;;;5066150;28;20286;-59
2023/09/28 09:57:47;;;;;;;18.63;3.43;;;19.80;99.90;;;;;;5061842;28;20283;-59
2023/09/28 10:00:18;;;;;;;12.97;2.50;;;19.80;99.90;;;;;;5069034;28;20216;-59
2023/09/28 10:02:50;;;;;;;15.00;3.07;;;19.70;99.90;;;;;;5064494;28;20220;-59
2023/09/28 10:05:23;;;;;;;16.53;3.07;;;19.90;99.90;;;;;;5061803;28;20220;-60
2023/09/28 10:07:52;;;;;;;13.40;2.73;;;20.10;99.90;;;;;;5058797;28;20282;-59
2023/09/28 10:10:21;;;;;;;15.07;3.00;;;20.10;99.90;;;;;;5063827;28;21523;-58
2023/09/28 10:12:51;;;;;;;12.00;2.63;;;20.10;99.90;;;;;;5063518;28;20212;-59
2023/09/28 10:15:19;;;;;;;16.97;3.10;;;20.20;99.90;;;;;;5066740;28;20694;-59
2023/09/28 10:17:48;;;;;;;10.43;2.50;;;20.40;99.90;;;;;;5065415;28;20251;-59
2023/09/28 10:20:18;;;;;;;17.13;3.40;;;20.80;99.90;;;;;;5056895;28;20577;-59
2023/09/28 10:22:49;;;;;;;11.77;2.93;;;21.10;99.90;;;;;;5047050;28;20329;-59
2023/09/28 10:25:18;;;;;;;15.20;3.03;;;21.20;99.90;;;;;;5049944;28;20205;-59
2023/09/28 10:27:47;;;;;;;17.03;3.00;;;21.30;99.90;;;;;;5062088;28;20217;-59
2023/09/28 10:30:18;;;;;;;13.73;3.10;;;21.20;99.90;;;;;;5046170;28;20465;-59
2023/09/28 10:32:52;;;;;;;12.70;2.60;;;21.30;99.90;;;;;;5044291;28;20228;-60
2023/09/28 10:35:29;;;;;;;14.60;2.87;;;21.20;99.90;;;;;;5057380;28;20244;-59
2023/09/28 10:38:21;;;;;;;10.37;2.83;;;21.10;99.90;;;;;;5066872;28;20750;-59
2023/09/28 10:41:03;;;;;;;13.83;2.93;;;21.20;99.90;;;;;;5069678;28;20216;-59
2023/09/28 10:43:34;;;;;;;13.53;2.90;;;21.30;99.90;;;;;;5081226;28;20259;-59
2023/09/28 10:46:04;;;;;;;11.83;2.80;;;21.10;99.90;;;;;;5070727;28;20288;-59
2023/09/28 10:48:38;;;;;;;11.03;2.83;;;21.10;99.90;;;;;;5066640;28;20239;-59
2023/09/28 10:51:10;;;;;;;12.47;3.00;;;21.00;99.90;;;;;;5060544;28;20212;-59
2023/09/28 10:53:41;;;;;;;10.13;2.53;;;21.00;99.90;;;;;;5062375;28;20236;-59
2023/09/28 10:56:11;;;;;;;11.17;3.30;;;20.80;99.90;;;;;;5066624;28;20225;-59
2023/09/28 10:58:41;;;;;;;10.83;2.93;;;20.70;99.90;;;;;;5064407;28;20668;-59
2023/09/28 11:01:10;;;;;;;16.57;3.30;;;20.60;99.90;;;;;;5064549;28;20658;-59
2023/09/28 11:03:39;;;;;;;13.97;2.80;;;20.70;99.90;;;;;;5064360;28;20263;-59
2023/09/28 11:06:09;;;;;;;12.77;2.63;;;20.90;99.90;;;;;;5064713;28;20228;-59
2023/09/28 11:08:43;;;;;;;13.70;3.07;;;21.10;99.90;;;;;;5064208;28;20306;-59
2023/09/28 11:11:11;;;;;;;13.17;2.90;;;21.10;99.90;;;;;;5064261;28;20714;-59
2023/09/28 11:13:39;;;;;;;18.30;3.37;;;21.20;99.90;;;;;;5062718;28;20611;-59
2023/09/28 11:16:09;;;;;;;14.30;3.43;;;21.40;99.90;;;;;;5065267;28;20194;-59
2023/09/28 11:18:38;;;;;;;13.90;3.17;;;21.70;99.90;;;;;;5064413;28;20703;-59
2023/09/28 11:21:06;;;;;;;10.83;3.03;;;21.70;99.90;;;;;;5065298;28;20225;-60
2023/09/28 11:23:35;;;;;;;13.03;3.17;;;21.70;99.90;;;;;;5063341;28;20240;-59
2023/09/28 11:26:05;;;;;;;12.03;3.13;;;21.70;99.90;;;;;;5063942;28;20304;-59
2023/09/28 11:28:34;;;;;;;12.57;3.40;;;21.80;99.90;;;;;;5066491;28;20225;-59
2023/09/28 11:31:08;;;;;;;22.43;3.50;;;21.90;99.90;;;;;;5060639;28;20204;-59
2023/09/28 11:33:38;;;;;;;15.30;2.70;;;22.10;99.90;;;;;;5063541;28;21139;-59
2023/09/28 11:36:14;;;;;;;13.40;3.00;;;22.00;99.90;;;;;;5061335;28;21002;-59
2023/09/28 11:38:45;;;;;;;11.43;2.60;;;22.10;99.90;;;;;;5062020;28;20275;-59
2023/09/28 11:41:16;;;;;;;12.87;2.90;;;22.10;99.90;;;;;;5065740;28;20305;-59
2023/09/28 11:43:47;;;;;;;17.47;3.43;;;22.30;99.90;;;;;;5064762;28;20304;-59
2023/09/28 11:46:19;;;;;;;12.37;2.83;;;22.30;99.90;;;;;;5062811;28;20197;-58
2023/09/28 11:48:47;;;;;;;7.97;2.47;;;22.20;99.90;;;;;;5064446;28;20309;-59
2023/09/28 11:51:16;;;;;;;11.00;2.60;;;22.10;99.90;;;;;;5064633;28;22222;-59
2023/09/28 11:53:45;;;;;;;9.33;2.63;;;22.10;99.90;;;;;;5065151;28;20226;-59
2023/09/28 11:56:16;;;;;;;12.03;2.80;;;22.20;99.90;;;;;;5068164;28;20217;-60
2023/09/28 11:58:45;;;;;;;11.17;2.77;;;22.20;99.90;;;;;;5061201;28;20231;-59
2023/09/28 12:01:13;;;;;;;11.73;2.43;;;22.30;99.90;;;;;;5061247;28;20632;-58
2023/09/28 12:03:41;;;;;;;13.87;2.80;;;22.20;99.90;;;;;;5061293;28;20196;-63
2023/09/28 12:06:10;;;;;;;12.70;3.00;;;22.30;99.90;;;;;;5064348;28;20237;-59
2023/09/28 12:08:39;;;;;;;11.40;2.63;;;22.40;99.90;;;;;;5058365;28;20225;-60
2023/09/28 12:11:07;;;;;;;10.33;2.80;;;22.50;99.90;;;;;;5061413;28;20230;-60
2023/09/28 12:13:38;;;;;;;12.60;2.53;;;22.70;99.90;;;;;;5060227;28;20234;-59
2023/09/28 12:16:06;;;;;;;13.47;2.83;;;22.60;99.90;;;;;;5060465;28;20699;-59
2023/09/28 12:18:35;;;;;;;9.23;2.70;;;22.30;99.90;;;;;;5038497;28;20230;-59
2023/09/28 12:21:05;;;;;;;12.40;2.73;;;22.10;99.90;;;;;;5041009;28;20276;-59
2023/09/28 12:23:34;;;;;;;14.33;2.93;;;22.20;99.90;;;;;;5042695;28;20306;-59
2023/09/28 12:26:02;;;;;;;11.90;3.00;;;22.20;99.90;;;;;;5046979;28;20736;-59
2023/09/28 12:28:31;;;;;;;14.30;3.00;;;22.30;99.90;;;;;;5043981;28;20209;-60
2023/09/28 12:31:03;;;;;;;8.47;2.90;;;22.30;99.90;;;;;;5042847;28;20760;-59
2023/09/28 12:33:34;;;;;;;11.13;2.73;;;22.30;99.90;;;;;;5043480;28;20280;-59
2023/09/28 12:36:02;;;;;;;10.77;2.57;;;22.20;99.90;;;;;;5044220;28;20263;-59
2023/09/28 12:38:30;;;;;;;10.83;3.10;;;22.10;99.90;;;;;;5044247;28;20216;-59
2023/09/28 12:40:59;;;;;;;12.77;3.00;;;22.10;99.90;;;;;;5043649;28;20230;-59
2023/09/28 12:43:28;;;;;;;21.90;3.90;;;22.20;99.90;;;;;;5046508;28;20187;-60
2023/09/28 12:45:56;;;;;;;12.63;3.13;;;22.30;99.90;;;;;;5047708;28;20190;-59
2023/09/28 12:48:26;;;;;;;12.17;3.07;;;22.40;99.90;;;;;;5046481;28;20242;-59
2023/09/28 12:50:55;;;;;;;10.23;2.97;;;22.40;99.90;;;;;;5047032;28;20241;-59
2023/09/28 12:53:25;;;;;;;8.53;2.77;;;22.50;99.90;;;;;;5051778;28;20551;-59